createdAt,value
2018-04-30T00:00:00.769Z,13.30
2018-04-30T00:02:29.051Z,13.20
2018-04-30T00:04:57.354Z,13.20
2018-04-30T00:07:25.655Z,13.20
2018-04-30T00:09:53.223Z,13.20
2018-04-30T00:12:20.811Z,13.20
2018-04-30T00:14:48.333Z,13.20
2018-04-30T00:17:15.843Z,13.20
2018-04-30T00:19:43.364Z,13.20
2018-04-30T00:22:10.938Z,13.20
2018-04-30T00:24:38.480Z,13.20
2018-04-30T00:27:05.990Z,13.10
2018-04-30T00:29:33.516Z,13.10
2018-04-30T00:32:01.062Z,13.10
2018-04-30T00:34:29.352Z,13.00
2018-04-30T00:36:57.619Z,12.90
2018-04-30T00:39:25.199Z,12.90
2018-04-30T00:41:53.661Z,12.90
2018-04-30T00:44:21.217Z,12.90
2018-04-30T00:46:48.767Z,12.90
2018-04-30T00:49:16.293Z,12.90
2018-04-30T00:51:43.802Z,13.00
2018-04-30T00:54:11.473Z,13.00
2018-04-30T00:56:39.029Z,13.00
2018-04-30T00:59:07.322Z,13.00
2018-04-30T01:01:35.596Z,13.10
2018-04-30T01:04:03.132Z,13.00
2018-04-30T01:06:30.640Z,13.00
2018-04-30T01:08:58.160Z,13.00
2018-04-30T01:11:25.659Z,13.00
2018-04-30T01:13:53.175Z,13.00
2018-04-30T01:16:21.442Z,13.10
2018-04-30T01:18:49.736Z,13.10
2018-04-30T01:21:18.009Z,13.20
2018-04-30T01:23:45.537Z,13.10
2018-04-30T01:26:13.055Z,13.10
2018-04-30T01:28:40.577Z,13.10
2018-04-30T01:31:08.101Z,13.10
2018-04-30T01:33:35.621Z,13.10
2018-04-30T01:36:03.198Z,13.10
2018-04-30T01:38:30.712Z,13.20
2018-04-30T01:40:58.245Z,13.20
2018-04-30T01:43:25.745Z,13.30
2018-04-30T01:45:53.271Z,13.20
2018-04-30T01:48:20.789Z,13.10
2018-04-30T01:50:48.315Z,13.20
2018-04-30T01:53:15.861Z,13.20
2018-04-30T01:55:45.578Z,13.20
2018-04-30T01:58:13.850Z,13.20
2018-04-30T02:00:41.357Z,13.20
2018-04-30T02:03:08.908Z,13.20
2018-04-30T02:05:37.221Z,13.20
2018-04-30T02:08:04.736Z,13.20
2018-04-30T02:10:32.267Z,13.20
2018-04-30T02:12:59.773Z,13.20
2018-04-30T02:15:27.307Z,13.10
2018-04-30T02:17:54.824Z,13.10
2018-04-30T02:20:22.394Z,13.10
2018-04-30T02:22:50.725Z,13.00
2018-04-30T02:25:18.272Z,13.00
2018-04-30T02:27:45.784Z,13.00
2018-04-30T02:30:13.359Z,13.00
2018-04-30T02:32:40.888Z,13.00
2018-04-30T02:35:08.413Z,13.00
2018-04-30T02:37:35.925Z,13.00
2018-04-30T02:40:03.486Z,12.90
2018-04-30T02:42:30.992Z,13.00
2018-04-30T02:44:58.515Z,13.00
2018-04-30T02:47:26.017Z,13.00
2018-04-30T02:49:53.862Z,13.00
2018-04-30T02:52:21.382Z,13.00
2018-04-30T02:54:49.676Z,12.90
2018-04-30T02:57:17.987Z,13.00
2018-04-30T02:59:45.521Z,12.90
2018-04-30T03:02:13.029Z,12.90
2018-04-30T03:04:40.532Z,12.90
2018-04-30T03:07:08.111Z,13.00
2018-04-30T03:09:35.676Z,12.90
2018-04-30T03:12:03.204Z,12.90
2018-04-30T03:14:30.768Z,12.80
2018-04-30T03:16:58.309Z,12.80
2018-04-30T03:19:25.828Z,12.80
2018-04-30T03:21:53.365Z,12.70
2018-04-30T03:24:21.898Z,12.80
2018-04-30T03:26:49.431Z,12.80
2018-04-30T03:29:16.988Z,12.80
2018-04-30T03:31:44.515Z,12.70
2018-04-30T03:34:12.026Z,12.70
2018-04-30T03:36:39.549Z,12.70
2018-04-30T03:39:07.053Z,12.70
2018-04-30T03:41:34.571Z,12.60
2018-04-30T03:44:02.858Z,12.70
2018-04-30T03:46:31.142Z,12.70
2018-04-30T03:48:59.437Z,12.60
2018-04-30T03:51:27.709Z,12.60
2018-04-30T03:53:55.244Z,12.60
2018-04-30T03:56:22.756Z,12.60
2018-04-30T03:58:51.057Z,12.60
2018-04-30T04:01:31.284Z,12.60
2018-04-30T04:04:10.670Z,12.60
2018-04-30T04:06:53.837Z,12.60
2018-04-30T04:09:21.368Z,12.60
2018-04-30T04:11:48.902Z,12.60
2018-04-30T04:14:16.435Z,12.60
2018-04-30T04:16:44.704Z,12.60
2018-04-30T04:19:12.236Z,12.50
2018-04-30T04:21:39.747Z,12.50
2018-04-30T04:24:08.052Z,12.50
2018-04-30T04:26:36.320Z,12.50
2018-04-30T04:29:03.846Z,12.40
2018-04-30T04:31:31.373Z,12.40
2018-04-30T04:33:59.660Z,12.40
2018-04-30T04:36:27.929Z,12.40
2018-04-30T04:38:55.456Z,12.30
2018-04-30T04:41:23.020Z,12.30
2018-04-30T04:43:50.538Z,12.30
2018-04-30T04:46:18.072Z,12.30
2018-04-30T04:48:45.584Z,12.30
2018-04-30T04:51:13.104Z,12.40
2018-04-30T04:53:40.617Z,12.30
2018-04-30T04:56:08.150Z,12.30
2018-04-30T04:58:35.657Z,12.40
2018-04-30T05:01:03.249Z,12.40
2018-04-30T05:03:30.765Z,12.40
2018-04-30T05:05:58.297Z,12.40
2018-04-30T05:08:25.816Z,12.50
2018-04-30T05:10:53.392Z,12.50
2018-04-30T05:13:21.604Z,12.50
2018-04-30T05:15:49.132Z,12.50
2018-04-30T05:18:16.647Z,12.50
2018-04-30T05:20:44.167Z,12.50
2018-04-30T05:23:11.738Z,12.50
2018-04-30T05:25:39.276Z,12.50
2018-04-30T05:28:06.793Z,12.50
2018-04-30T05:30:34.314Z,12.60
2018-04-30T05:33:01.820Z,12.60
2018-04-30T05:35:30.094Z,12.60
2018-04-30T05:37:58.385Z,12.60
2018-04-30T05:40:26.690Z,12.60
2018-04-30T05:42:54.981Z,12.60
2018-04-30T05:45:23.261Z,12.60
2018-04-30T05:47:51.565Z,12.60
2018-04-30T05:50:19.063Z,12.60
2018-04-30T05:52:46.588Z,12.60
2018-04-30T05:55:15.051Z,12.60
2018-04-30T05:57:43.275Z,12.60
2018-04-30T06:00:11.557Z,12.60
2018-04-30T06:02:39.973Z,12.70
2018-04-30T06:05:07.480Z,12.60
2018-04-30T06:07:34.998Z,12.70
2018-04-30T06:10:03.274Z,12.80
2018-04-30T06:12:31.584Z,12.90
2018-04-30T06:14:59.157Z,12.90
2018-04-30T06:17:26.694Z,13.00
2018-04-30T06:19:54.200Z,13.10
2018-04-30T06:22:21.715Z,13.10
2018-04-30T06:24:49.289Z,13.00
2018-04-30T06:27:17.534Z,13.00
2018-04-30T06:29:45.040Z,12.90
2018-04-30T06:32:12.560Z,12.90
2018-04-30T06:34:40.837Z,12.90
2018-04-30T06:37:09.139Z,13.00
2018-04-30T06:39:37.409Z,13.10
2018-04-30T06:42:04.919Z,13.10
2018-04-30T06:44:32.480Z,13.30
2018-04-30T06:46:59.976Z,13.20
2018-04-30T06:49:27.495Z,13.50
2018-04-30T06:51:54.991Z,13.50
2018-04-30T06:54:23.287Z,13.40
2018-04-30T06:56:50.792Z,13.40
2018-04-30T06:59:18.319Z,13.40
2018-04-30T07:01:46.632Z,13.50
2018-04-30T07:04:14.152Z,13.50
2018-04-30T07:06:41.675Z,13.50
2018-04-30T07:09:09.284Z,13.40
2018-04-30T07:11:36.806Z,13.40
2018-04-30T07:14:04.349Z,13.30
2018-04-30T07:16:31.855Z,13.20
2018-04-30T07:18:59.381Z,13.10
2018-04-30T07:21:26.880Z,13.00
2018-04-30T07:23:55.177Z,13.10
2018-04-30T07:26:22.684Z,13.00
2018-04-30T07:28:50.230Z,13.00
2018-04-30T07:31:17.737Z,12.90
2018-04-30T07:33:45.276Z,12.90
2018-04-30T07:36:12.798Z,12.80
2018-04-30T07:38:40.418Z,12.90
2018-04-30T07:41:07.964Z,13.00
2018-04-30T07:43:36.297Z,13.20
2018-04-30T07:46:03.809Z,13.20
2018-04-30T07:48:31.328Z,13.10
2018-04-30T07:50:58.845Z,13.20
2018-04-30T07:53:26.361Z,13.20
2018-04-30T07:55:53.914Z,13.10
2018-04-30T07:58:22.223Z,13.10
2018-04-30T08:00:49.724Z,13.10
2018-04-30T08:03:17.356Z,13.20
2018-04-30T08:05:45.655Z,13.30
2018-04-30T08:08:13.190Z,13.20
2018-04-30T08:10:40.789Z,13.40
2018-04-30T08:13:08.308Z,13.60
2018-04-30T08:15:35.925Z,13.60
2018-04-30T08:18:04.199Z,13.50
2018-04-30T08:20:32.493Z,13.50
2018-04-30T08:23:00.766Z,13.40
2018-04-30T08:25:28.284Z,13.40
2018-04-30T08:27:55.801Z,13.40
2018-04-30T08:30:24.237Z,13.40
2018-04-30T08:32:51.740Z,13.50
2018-04-30T08:35:19.263Z,13.40
2018-04-30T08:37:47.530Z,13.10
2018-04-30T08:40:15.091Z,13.10
2018-04-30T08:42:42.595Z,13.00
2018-04-30T08:45:10.913Z,13.00
2018-04-30T08:47:38.465Z,13.00
2018-04-30T08:50:05.976Z,13.00
2018-04-30T08:52:33.481Z,13.10
2018-04-30T08:55:00.996Z,13.30
2018-04-30T08:57:28.497Z,13.50
2018-04-30T08:59:56.013Z,13.70
2018-04-30T09:02:24.309Z,13.80
2018-04-30T09:04:52.614Z,13.80
2018-04-30T09:07:20.119Z,13.80
2018-04-30T09:09:47.665Z,13.80
2018-04-30T09:12:15.941Z,13.90
2018-04-30T09:14:43.439Z,13.80
2018-04-30T09:17:10.959Z,13.90
2018-04-30T09:19:39.240Z,13.90
2018-04-30T09:22:07.552Z,14.30
2018-04-30T09:24:35.117Z,14.30
2018-04-30T09:27:03.403Z,14.80
2018-04-30T09:29:31.668Z,15.10
2018-04-30T09:31:59.274Z,15.10
2018-04-30T09:34:26.781Z,15.50
2018-04-30T09:36:54.334Z,15.70
2018-04-30T09:39:21.828Z,16.10
2018-04-30T09:41:49.345Z,16.20
2018-04-30T09:44:17.612Z,16.30
2018-04-30T09:46:45.144Z,16.20
2018-04-30T09:49:12.673Z,16.50
2018-04-30T09:51:40.214Z,16.70
2018-04-30T09:54:07.804Z,16.70
2018-04-30T09:56:35.297Z,16.90
2018-04-30T09:59:03.585Z,17.50
2018-04-30T10:01:31.851Z,17.60
2018-04-30T10:03:59.368Z,17.60
2018-04-30T10:06:26.873Z,18.00
2018-04-30T10:08:54.392Z,18.30
2018-04-30T10:11:22.689Z,17.50
2018-04-30T10:13:50.347Z,17.50
2018-04-30T10:16:18.630Z,17.10
2018-04-30T10:18:47.030Z,17.20
2018-04-30T10:21:15.302Z,17.10
2018-04-30T10:23:42.841Z,17.10
2018-04-30T10:26:10.339Z,17.00
2018-04-30T10:28:37.874Z,16.60
2018-04-30T10:31:05.364Z,16.20
2018-04-30T10:33:32.911Z,16.00
2018-04-30T10:36:00.413Z,15.90
2018-04-30T10:38:29.494Z,15.40
2018-04-30T10:40:56.985Z,15.40
2018-04-30T10:43:24.556Z,15.10
2018-04-30T10:45:52.138Z,15.10
2018-04-30T10:48:19.592Z,15.10
2018-04-30T10:50:47.098Z,15.00
2018-04-30T10:53:14.627Z,15.00
2018-04-30T10:55:42.137Z,15.20
2018-04-30T10:58:09.642Z,15.20
2018-04-30T11:00:37.166Z,15.40
2018-04-30T11:03:04.704Z,15.00
2018-04-30T11:05:32.252Z,15.20
2018-04-30T11:07:59.772Z,15.00
2018-04-30T11:10:27.293Z,15.00
2018-04-30T11:12:54.790Z,15.10
2018-04-30T11:15:22.327Z,15.00
2018-04-30T11:17:50.612Z,15.80
2018-04-30T11:20:18.900Z,16.30
2018-04-30T11:22:47.169Z,17.00
2018-04-30T11:25:14.684Z,16.90
2018-04-30T11:27:42.292Z,17.20
2018-04-30T11:30:09.787Z,17.60
2018-04-30T11:32:37.289Z,17.80
2018-04-30T11:35:04.858Z,17.60
2018-04-30T11:37:32.368Z,17.40
2018-04-30T11:40:00.030Z,16.90
2018-04-30T11:42:27.505Z,17.20
2018-04-30T11:44:55.050Z,17.70
2018-04-30T11:47:22.564Z,17.60
2018-04-30T11:49:50.113Z,17.40
2018-04-30T11:52:17.627Z,17.70
2018-04-30T11:54:45.136Z,17.60
2018-04-30T11:57:13.307Z,17.30
2018-04-30T11:59:40.828Z,17.30
2018-04-30T12:02:08.364Z,16.70
2018-04-30T12:04:35.885Z,16.50
2018-04-30T12:07:03.417Z,16.20
2018-04-30T12:09:30.928Z,15.80
2018-04-30T12:11:58.684Z,15.60
2018-04-30T12:14:26.193Z,15.60
2018-04-30T12:16:54.528Z,16.10
2018-04-30T12:19:22.159Z,16.10
2018-04-30T12:21:50.481Z,15.90
2018-04-30T12:24:18.743Z,15.60
2018-04-30T12:26:47.058Z,15.80
2018-04-30T12:29:14.670Z,15.70
2018-04-30T12:31:42.212Z,15.60
2018-04-30T12:34:09.728Z,15.70
2018-04-30T12:36:37.336Z,16.10
2018-04-30T12:39:05.684Z,16.10
2018-04-30T12:41:33.243Z,16.30
2018-04-30T12:44:00.773Z,16.80
2018-04-30T12:46:28.298Z,16.40
2018-04-30T12:48:55.859Z,16.20
2018-04-30T12:51:23.377Z,15.80
2018-04-30T12:53:50.893Z,16.00
2018-04-30T12:56:18.454Z,16.20
2018-04-30T12:58:45.969Z,16.20
2018-04-30T13:01:14.292Z,16.50
2018-04-30T13:03:41.840Z,16.50
2018-04-30T13:06:10.126Z,16.10
2018-04-30T13:08:37.679Z,16.10
2018-04-30T13:11:05.951Z,15.80
2018-04-30T13:13:33.476Z,15.70
2018-04-30T13:16:01.121Z,16.00
2018-04-30T13:18:28.639Z,16.50
2018-04-30T13:20:56.192Z,16.20
2018-04-30T13:23:24.480Z,16.20
2018-04-30T13:25:52.744Z,16.30
2018-04-30T13:28:20.341Z,16.20
2018-04-30T13:30:48.612Z,15.60
2018-04-30T13:33:16.132Z,15.60
2018-04-30T13:35:43.702Z,15.20
2018-04-30T13:38:11.232Z,14.40
2018-04-30T13:40:38.840Z,14.10
2018-04-30T13:43:06.352Z,14.30
2018-04-30T13:45:33.864Z,14.70
2018-04-30T13:48:02.144Z,15.00
2018-04-30T13:50:30.458Z,14.80
2018-04-30T13:52:57.972Z,14.80
2018-04-30T13:55:25.491Z,14.60
2018-04-30T13:57:53.169Z,14.40
2018-04-30T14:00:20.810Z,14.20
2018-04-30T14:02:48.331Z,14.30
2018-04-30T14:05:15.921Z,14.10
2018-04-30T14:07:43.448Z,14.20
2018-04-30T14:10:11.713Z,14.80
2018-04-30T14:12:39.263Z,14.70
2018-04-30T14:15:06.794Z,15.00
2018-04-30T14:17:34.305Z,14.90
2018-04-30T14:20:01.842Z,14.90
2018-04-30T14:22:29.344Z,14.90
2018-04-30T14:24:56.869Z,14.80
2018-04-30T14:27:24.563Z,14.80
2018-04-30T14:29:52.072Z,14.70
2018-04-30T14:32:19.572Z,14.50
2018-04-30T14:34:47.852Z,14.80
2018-04-30T14:37:15.391Z,14.80
2018-04-30T14:39:42.902Z,15.00
2018-04-30T14:42:11.172Z,15.50
2018-04-30T14:44:38.774Z,15.40
2018-04-30T14:47:06.220Z,15.30
2018-04-30T14:49:33.741Z,15.60
2018-04-30T14:52:01.252Z,15.80
2018-04-30T14:54:28.800Z,15.70
2018-04-30T14:56:56.302Z,15.60
2018-04-30T14:59:23.920Z,16.00
2018-04-30T15:01:51.429Z,15.50
2018-04-30T15:04:18.946Z,15.30
2018-04-30T15:06:47.232Z,15.40
2018-04-30T15:09:15.545Z,15.30
2018-04-30T15:11:43.052Z,15.30
2018-04-30T15:14:10.601Z,15.40
2018-04-30T15:16:38.125Z,15.30
2018-04-30T15:19:06.437Z,15.30
2018-04-30T15:21:35.112Z,15.20
2018-04-30T15:24:03.416Z,15.10
2018-04-30T15:26:31.839Z,14.70
2018-04-30T15:28:59.372Z,14.60
2018-04-30T15:31:27.703Z,14.30
2018-04-30T15:33:55.248Z,14.30
2018-04-30T15:36:22.768Z,14.30
2018-04-30T15:38:50.348Z,14.30
2018-04-30T15:41:17.860Z,14.20
2018-04-30T15:43:46.364Z,14.20
2018-04-30T15:46:13.880Z,14.20
2018-04-30T15:48:41.561Z,14.20
2018-04-30T15:51:09.048Z,14.30
2018-04-30T15:53:36.572Z,14.20
2018-04-30T15:56:04.092Z,14.30
2018-04-30T15:58:32.370Z,14.00
2018-04-30T16:01:00.015Z,14.00
2018-04-30T16:03:27.508Z,13.90
2018-04-30T16:05:55.044Z,13.90
2018-04-30T16:08:22.617Z,13.80
2018-04-30T16:10:50.186Z,13.60
2018-04-30T16:13:17.691Z,13.60
2018-04-30T16:15:45.212Z,13.50
2018-04-30T16:18:12.769Z,13.50
2018-04-30T16:20:40.249Z,13.50
2018-04-30T16:23:07.779Z,13.30
2018-04-30T16:25:35.309Z,13.30
2018-04-30T16:28:02.804Z,13.30
2018-04-30T16:30:30.325Z,13.40
2018-04-30T16:32:58.600Z,13.20
2018-04-30T16:35:26.881Z,13.10
2018-04-30T16:37:54.383Z,13.10
2018-04-30T16:40:21.909Z,13.10
2018-04-30T16:42:49.408Z,13.20
2018-04-30T16:45:17.692Z,13.20
2018-04-30T16:47:45.984Z,13.30
2018-04-30T16:50:14.296Z,13.50
2018-04-30T16:52:41.992Z,13.50
2018-04-30T16:55:09.521Z,13.50
2018-04-30T16:57:37.913Z,13.50
2018-04-30T17:00:06.215Z,13.30
2018-04-30T17:02:34.489Z,13.10
2018-04-30T17:05:02.873Z,13.00
2018-04-30T17:07:30.460Z,13.00
2018-04-30T17:09:58.747Z,12.90
2018-04-30T17:12:27.061Z,13.00
2018-04-30T17:14:54.576Z,13.00
2018-04-30T17:17:22.065Z,13.00
2018-04-30T17:19:49.673Z,12.90
2018-04-30T17:22:17.165Z,12.90
2018-04-30T17:24:44.688Z,12.90
2018-04-30T17:27:12.977Z,13.00
2018-04-30T17:29:41.851Z,12.90
2018-04-30T17:32:10.089Z,12.90
2018-04-30T17:34:37.591Z,12.90
2018-04-30T17:37:05.137Z,12.70
2018-04-30T17:39:32.706Z,12.50
2018-04-30T17:42:00.336Z,12.40
2018-04-30T17:44:27.904Z,12.30
2018-04-30T17:46:55.530Z,12.20
2018-04-30T17:49:23.107Z,12.10
2018-04-30T17:51:50.668Z,12.00
2018-04-30T17:54:18.168Z,12.00
2018-04-30T17:56:45.705Z,12.00
2018-04-30T17:59:13.984Z,11.80
2018-04-30T18:01:42.265Z,11.80
2018-04-30T18:04:10.567Z,11.70
2018-04-30T18:06:38.853Z,11.60
2018-04-30T18:09:07.131Z,11.40
2018-04-30T18:11:35.428Z,11.30
2018-04-30T18:14:03.716Z,11.20
2018-04-30T18:16:32.008Z,11.20
2018-04-30T18:18:59.585Z,11.20
2018-04-30T18:21:27.116Z,11.20
2018-04-30T18:23:54.634Z,11.20
2018-04-30T18:26:22.925Z,11.10
2018-04-30T18:28:50.487Z,11.10
2018-04-30T18:31:18.769Z,11.10
2018-04-30T18:33:47.053Z,11.00
2018-04-30T18:36:14.569Z,11.00
2018-04-30T18:38:42.154Z,11.00
2018-04-30T18:41:10.737Z,11.00
2018-04-30T18:43:38.531Z,11.00
2018-04-30T18:46:06.084Z,11.00
2018-04-30T18:48:33.599Z,10.90
2018-04-30T18:51:01.172Z,10.80
2018-04-30T18:53:28.733Z,10.70
2018-04-30T18:55:56.279Z,10.60
2018-04-30T18:58:23.820Z,10.50
2018-04-30T19:00:52.225Z,10.20
2018-04-30T19:03:20.034Z,10.20
2018-04-30T19:05:47.602Z,10.10
2018-04-30T19:08:15.218Z,9.90
2018-04-30T19:10:43.568Z,9.60
2018-04-30T19:13:11.111Z,9.60
2018-04-30T19:15:39.563Z,9.40
2018-04-30T19:18:07.105Z,9.20
2018-04-30T19:20:34.595Z,9.10
2018-04-30T19:23:02.117Z,9.00
2018-04-30T19:25:29.644Z,8.90
2018-04-30T19:27:57.250Z,8.90
2018-04-30T19:30:25.513Z,8.90
2018-04-30T19:32:53.034Z,8.90
2018-04-30T19:35:20.533Z,8.90
2018-04-30T19:37:48.051Z,9.00
2018-04-30T19:40:16.334Z,9.00
2018-04-30T19:42:44.634Z,9.00
2018-04-30T19:45:12.144Z,9.00
2018-04-30T19:47:39.659Z,9.00
2018-04-30T19:50:07.167Z,9.00
2018-04-30T19:52:34.703Z,8.90
2018-04-30T19:55:02.204Z,8.70
2018-04-30T19:57:29.720Z,8.40
2018-04-30T19:59:57.238Z,8.30
2018-04-30T20:02:24.772Z,8.20
2018-04-30T20:04:52.301Z,8.20
2018-04-30T20:07:19.939Z,8.20
2018-04-30T20:09:48.218Z,8.10
2018-04-30T20:12:15.920Z,8.10
2018-04-30T20:14:43.424Z,8.10
2018-04-30T20:17:10.945Z,8.00
2018-04-30T20:19:39.210Z,7.90
2018-04-30T20:22:06.737Z,7.90
2018-04-30T20:24:34.231Z,7.90
2018-04-30T20:27:01.757Z,7.90
2018-04-30T20:29:29.253Z,7.90
2018-04-30T20:31:56.777Z,7.90
2018-04-30T20:34:24.281Z,8.00
2018-04-30T20:36:51.854Z,8.00
2018-04-30T20:39:19.390Z,8.10
2018-04-30T20:41:46.905Z,8.10
2018-04-30T20:44:14.449Z,8.10
2018-04-30T20:46:42.761Z,8.10
2018-04-30T20:49:10.316Z,8.10
2018-04-30T20:51:38.742Z,8.10
2018-04-30T20:54:06.281Z,8.00
2018-04-30T20:56:34.548Z,8.00
2018-04-30T20:59:02.107Z,8.00
2018-04-30T21:01:29.632Z,8.00
2018-04-30T21:03:57.201Z,8.00
2018-04-30T21:06:24.795Z,8.00
2018-04-30T21:09:04.176Z,8.00
2018-04-30T21:11:31.669Z,7.90
2018-04-30T21:13:59.956Z,7.90
2018-04-30T21:16:28.219Z,7.90
2018-04-30T21:18:55.755Z,7.80
2018-04-30T21:21:23.271Z,7.90
2018-04-30T21:23:50.889Z,7.80
2018-04-30T21:26:18.536Z,7.80
2018-04-30T21:28:46.833Z,7.70
2018-04-30T21:31:15.112Z,7.70
2018-04-30T21:33:43.377Z,7.70
2018-04-30T21:36:10.888Z,7.60
2018-04-30T21:38:39.161Z,7.60
2018-04-30T21:41:07.513Z,7.60
2018-04-30T21:43:35.025Z,7.60
2018-04-30T21:46:02.548Z,7.50
2018-04-30T21:48:30.057Z,7.50
2018-04-30T21:50:57.644Z,7.50
2018-04-30T21:53:25.953Z,7.40
2018-04-30T21:55:53.469Z,7.40
2018-04-30T21:58:20.990Z,7.40
2018-04-30T22:00:48.516Z,7.40
2018-04-30T22:03:16.038Z,7.40
2018-04-30T22:05:43.560Z,7.30
2018-04-30T22:08:11.077Z,7.30
2018-04-30T22:10:38.649Z,7.30
2018-04-30T22:13:06.174Z,7.20
2018-04-30T22:15:33.693Z,7.20
2018-04-30T22:18:01.212Z,7.10
2018-04-30T22:20:28.754Z,7.10
2018-04-30T22:22:56.304Z,7.00
2018-04-30T22:25:23.821Z,6.90
2018-04-30T22:27:51.345Z,6.90
2018-04-30T22:30:18.856Z,6.90
2018-04-30T22:32:46.480Z,6.80
2018-04-30T22:35:14.744Z,6.80
2018-04-30T22:37:42.364Z,6.80
2018-04-30T22:40:09.909Z,6.80
2018-04-30T22:42:37.449Z,6.80
2018-04-30T22:45:04.972Z,6.70
2018-04-30T22:47:32.493Z,6.70
2018-04-30T22:50:00.021Z,6.70
2018-04-30T22:52:27.553Z,6.70
2018-04-30T22:54:55.821Z,6.60
2018-04-30T22:57:23.345Z,6.60
2018-04-30T22:59:50.915Z,6.60
2018-04-30T23:02:18.523Z,6.60
2018-04-30T23:04:46.044Z,6.60
2018-04-30T23:07:14.344Z,6.60
2018-04-30T23:09:41.837Z,6.60
2018-04-30T23:12:09.353Z,6.50
2018-04-30T23:14:36.849Z,6.50
2018-04-30T23:17:04.367Z,6.40
2018-04-30T23:19:31.884Z,6.30
2018-04-30T23:22:00.185Z,6.20
2018-04-30T23:24:27.693Z,6.10
2018-04-30T23:26:55.219Z,6.10
2018-04-30T23:29:23.540Z,6.10
2018-04-30T23:31:51.205Z,6.00
2018-04-30T23:34:18.722Z,6.00
2018-04-30T23:36:46.224Z,6.00
2018-04-30T23:39:14.527Z,5.90
2018-04-30T23:41:42.028Z,5.90
2018-04-30T23:44:09.551Z,5.90
2018-04-30T23:46:37.839Z,5.90
2018-04-30T23:49:06.173Z,5.90
2018-04-30T23:51:33.732Z,5.90
2018-04-30T23:54:01.292Z,5.90
2018-04-30T23:56:28.800Z,6.00
2018-04-30T23:58:56.317Z,6.00
